sensor_id;sensor_type;location;lat;lon;timestamp;P1;durP1;ratioP1;P2;durP2;ratioP2
32533;SDS011;18973;48.580;8.912;2023-01-31T00:00:56;12.57;;;7.45;;
32533;SDS011;18973;48.580;8.912;2023-01-31T00:03:29;18.45;;;8.48;;
32533;SDS011;18973;48.580;8.912;2023-01-31T00:05:55;13.02;;;7.38;;
32533;SDS011;18973;48.580;8.912;2023-01-31T00:08:21;14.25;;;7.30;;
32533;SDS011;18973;48.580;8.912;2023-01-31T00:10:46;9.98;;;6.55;;
32533;SDS011;18973;48.580;8.912;2023-01-31T00:13:12;10.90;;;6.97;;
32533;SDS011;18973;48.580;8.912;2023-01-31T00:15:37;13.15;;;7.03;;
32533;SDS011;18973;48.580;8.912;2023-01-31T00:18:03;11.60;;;6.70;;
32533;SDS011;18973;48.580;8.912;2023-01-31T00:20:29;12.13;;;8.32;;
32533;SDS011;18973;48.580;8.912;2023-01-31T00:22:55;11.32;;;6.65;;
32533;SDS011;18973;48.580;8.912;2023-01-31T00:25:20;13.75;;;7.07;;
32533;SDS011;18973;48.580;8.912;2023-01-31T00:27:46;17.60;;;8.52;;
32533;SDS011;18973;48.580;8.912;2023-01-31T00:30:12;11.48;;;7.22;;
32533;SDS011;18973;48.580;8.912;2023-01-31T00:32:37;16.40;;;8.55;;
32533;SDS011;18973;48.580;8.912;2023-01-31T00:35:03;15.27;;;8.48;;
32533;SDS011;18973;48.580;8.912;2023-01-31T00:37:29;12.20;;;8.20;;
32533;SDS011;18973;48.580;8.912;2023-01-31T00:39:55;12.52;;;8.35;;
32533;SDS011;18973;48.580;8.912;2023-01-31T00:42:20;11.07;;;7.15;;
32533;SDS011;18973;48.580;8.912;2023-01-31T00:44:46;15.75;;;7.78;;
32533;SDS011;18973;48.580;8.912;2023-01-31T00:47:12;17.75;;;8.10;;
32533;SDS011;18973;48.580;8.912;2023-01-31T00:49:38;13.43;;;7.70;;
32533;SDS011;18973;48.580;8.912;2023-01-31T00:52:03;10.82;;;7.38;;
32533;SDS011;18973;48.580;8.912;2023-01-31T00:54:29;10.13;;;8.00;;
32533;SDS011;18973;48.580;8.912;2023-01-31T00:56:55;12.70;;;7.93;;
32533;SDS011;18973;48.580;8.912;2023-01-31T00:59:20;13.15;;;8.43;;
32533;SDS011;18973;48.580;8.912;2023-01-31T01:01:46;12.82;;;8.50;;
32533;SDS011;18973;48.580;8.912;2023-01-31T01:04:12;9.60;;;7.95;;
32533;SDS011;18973;48.580;8.912;2023-01-31T01:06:38;15.00;;;7.70;;
32533;SDS011;18973;48.580;8.912;2023-01-31T01:09:05;16.98;;;8.18;;
32533;SDS011;18973;48.580;8.912;2023-01-31T01:11:31;13.23;;;7.97;;
32533;SDS011;18973;48.580;8.912;2023-01-31T01:13:58;15.07;;;7.60;;
32533;SDS011;18973;48.580;8.912;2023-01-31T01:16:26;12.68;;;7.72;;
32533;SDS011;18973;48.580;8.912;2023-01-31T01:18:55;17.30;;;8.63;;
32533;SDS011;18973;48.580;8.912;2023-01-31T01:21:22;17.42;;;9.82;;
32533;SDS011;18973;48.580;8.912;2023-01-31T01:23:50;12.60;;;8.65;;
32533;SDS011;18973;48.580;8.912;2023-01-31T01:26:19;13.02;;;8.20;;
32533;SDS011;18973;48.580;8.912;2023-01-31T01:28:47;13.75;;;8.60;;
32533;SDS011;18973;48.580;8.912;2023-01-31T01:31:13;11.48;;;8.55;;
32533;SDS011;18973;48.580;8.912;2023-01-31T01:33:40;13.18;;;8.38;;
32533;SDS011;18973;48.580;8.912;2023-01-31T01:36:07;15.35;;;7.97;;
32533;SDS011;18973;48.580;8.912;2023-01-31T01:38:37;15.40;;;8.30;;
32533;SDS011;18973;48.580;8.912;2023-01-31T01:41:04;15.90;;;8.13;;
32533;SDS011;18973;48.580;8.912;2023-01-31T01:49:16;14.80;;;8.48;;
32533;SDS011;18973;48.580;8.912;2023-01-31T01:51:57;17.45;;;8.85;;
32533;SDS011;18973;48.580;8.912;2023-01-31T01:54:29;16.27;;;9.02;;
32533;SDS011;18973;48.580;8.912;2023-01-31T01:57:01;18.48;;;8.98;;
32533;SDS011;18973;48.580;8.912;2023-01-31T01:59:33;16.83;;;9.25;;
32533;SDS011;18973;48.580;8.912;2023-01-31T02:02:03;19.70;;;9.30;;
32533;SDS011;18973;48.580;8.912;2023-01-31T02:04:31;16.60;;;9.13;;
32533;SDS011;18973;48.580;8.912;2023-01-31T02:07:01;14.85;;;8.70;;
32533;SDS011;18973;48.580;8.912;2023-01-31T02:12:04;14.07;;;8.88;;
32533;SDS011;18973;48.580;8.912;2023-01-31T02:14:30;12.90;;;9.02;;
32533;SDS011;18973;48.580;8.912;2023-01-31T02:16:56;12.25;;;8.65;;
32533;SDS011;18973;48.580;8.912;2023-01-31T02:27:33;13.18;;;8.88;;
32533;SDS011;18973;48.580;8.912;2023-01-31T02:44:27;15.07;;;9.63;;
32533;SDS011;18973;48.580;8.912;2023-01-31T02:47:21;11.68;;;8.18;;
32533;SDS011;18973;48.580;8.912;2023-01-31T02:50:17;16.77;;;8.40;;
32533;SDS011;18973;48.580;8.912;2023-01-31T02:52:55;14.23;;;8.38;;
32533;SDS011;18973;48.580;8.912;2023-01-31T02:58:30;13.75;;;8.55;;
32533;SDS011;18973;48.580;8.912;2023-01-31T03:01:00;16.25;;;9.82;;
32533;SDS011;18973;48.580;8.912;2023-01-31T03:03:28;13.52;;;9.40;;
32533;SDS011;18973;48.580;8.912;2023-01-31T03:06:37;18.73;;;10.05;;
32533;SDS011;18973;48.580;8.912;2023-01-31T03:09:10;14.00;;;9.40;;
32533;SDS011;18973;48.580;8.912;2023-01-31T03:17:17;15.68;;;8.20;;
32533;SDS011;18973;48.580;8.912;2023-01-31T03:20:01;16.02;;;9.88;;
32533;SDS011;18973;48.580;8.912;2023-01-31T03:22:35;14.27;;;9.23;;
32533;SDS011;18973;48.580;8.912;2023-01-31T03:25:05;13.00;;;9.32;;
32533;SDS011;18973;48.580;8.912;2023-01-31T03:27:33;14.25;;;9.00;;
32533;SDS011;18973;48.580;8.912;2023-01-31T03:30:07;13.35;;;8.88;;
32533;SDS011;18973;48.580;8.912;2023-01-31T03:35:51;11.98;;;8.13;;
32533;SDS011;18973;48.580;8.912;2023-01-31T03:47:34;14.25;;;9.20;;
32533;SDS011;18973;48.580;8.912;2023-01-31T03:50:56;10.68;;;7.97;;
32533;SDS011;18973;48.580;8.912;2023-01-31T03:55:42;10.70;;;7.63;;
32533;SDS011;18973;48.580;8.912;2023-01-31T03:58:13;13.25;;;9.13;;
32533;SDS011;18973;48.580;8.912;2023-01-31T04:00:43;12.10;;;8.63;;
32533;SDS011;18973;48.580;8.912;2023-01-31T04:03:16;16.20;;;8.27;;
32533;SDS011;18973;48.580;8.912;2023-01-31T04:05:49;19.23;;;9.45;;
32533;SDS011;18973;48.580;8.912;2023-01-31T04:08:15;15.32;;;8.98;;
32533;SDS011;18973;48.580;8.912;2023-01-31T04:10:41;15.98;;;9.35;;
32533;SDS011;18973;48.580;8.912;2023-01-31T04:13:07;13.63;;;9.32;;
32533;SDS011;18973;48.580;8.912;2023-01-31T04:15:32;16.50;;;8.27;;
32533;SDS011;18973;48.580;8.912;2023-01-31T04:17:58;21.95;;;8.60;;
32533;SDS011;18973;48.580;8.912;2023-01-31T04:20:24;12.80;;;8.98;;
32533;SDS011;18973;48.580;8.912;2023-01-31T04:22:52;16.85;;;8.20;;
32533;SDS011;18973;48.580;8.912;2023-01-31T04:25:18;18.20;;;8.77;;
32533;SDS011;18973;48.580;8.912;2023-01-31T04:27:43;12.75;;;7.70;;
32533;SDS011;18973;48.580;8.912;2023-01-31T04:30:09;19.55;;;8.38;;
32533;SDS011;18973;48.580;8.912;2023-01-31T04:32:35;13.60;;;7.93;;
32533;SDS011;18973;48.580;8.912;2023-01-31T04:35:01;16.33;;;9.57;;
32533;SDS011;18973;48.580;8.912;2023-01-31T04:37:27;16.90;;;9.20;;
32533;SDS011;18973;48.580;8.912;2023-01-31T04:39:52;14.18;;;7.70;;
32533;SDS011;18973;48.580;8.912;2023-01-31T04:42:18;14.50;;;8.45;;
32533;SDS011;18973;48.580;8.912;2023-01-31T04:44:44;9.52;;;8.18;;
32533;SDS011;18973;48.580;8.912;2023-01-31T04:47:12;12.73;;;8.93;;
32533;SDS011;18973;48.580;8.912;2023-01-31T04:49:38;15.95;;;9.02;;
32533;SDS011;18973;48.580;8.912;2023-01-31T04:52:04;16.38;;;9.02;;
32533;SDS011;18973;48.580;8.912;2023-01-31T04:54:30;15.98;;;8.82;;
32533;SDS011;18973;48.580;8.912;2023-01-31T04:56:56;15.23;;;9.20;;
32533;SDS011;18973;48.580;8.912;2023-01-31T04:59:22;20.67;;;11.00;;
32533;SDS011;18973;48.580;8.912;2023-01-31T05:01:48;17.63;;;9.13;;
32533;SDS011;18973;48.580;8.912;2023-01-31T05:04:13;16.15;;;9.05;;
32533;SDS011;18973;48.580;8.912;2023-01-31T05:06:39;13.43;;;8.63;;
32533;SDS011;18973;48.580;8.912;2023-01-31T05:09:05;13.82;;;9.00;;
32533;SDS011;18973;48.580;8.912;2023-01-31T05:11:31;18.40;;;9.07;;
32533;SDS011;18973;48.580;8.912;2023-01-31T05:13:57;18.92;;;8.70;;
32533;SDS011;18973;48.580;8.912;2023-01-31T05:16:23;17.60;;;9.32;;
32533;SDS011;18973;48.580;8.912;2023-01-31T05:18:48;23.85;;;10.27;;
32533;SDS011;18973;48.580;8.912;2023-01-31T05:21:14;22.73;;;12.43;;
32533;SDS011;18973;48.580;8.912;2023-01-31T05:23:41;23.00;;;11.43;;
32533;SDS011;18973;48.580;8.912;2023-01-31T05:26:07;21.55;;;9.98;;
32533;SDS011;18973;48.580;8.912;2023-01-31T05:28:32;21.55;;;8.88;;
32533;SDS011;18973;48.580;8.912;2023-01-31T05:31:03;19.00;;;7.97;;
32533;SDS011;18973;48.580;8.912;2023-01-31T05:33:30;14.32;;;8.30;;
32533;SDS011;18973;48.580;8.912;2023-01-31T05:35:57;16.00;;;8.55;;
32533;SDS011;18973;48.580;8.912;2023-01-31T05:38:23;20.10;;;10.13;;
32533;SDS011;18973;48.580;8.912;2023-01-31T05:40:49;18.75;;;10.50;;
32533;SDS011;18973;48.580;8.912;2023-01-31T05:43:16;19.45;;;10.48;;
32533;SDS011;18973;48.580;8.912;2023-01-31T05:45:41;24.92;;;13.80;;
32533;SDS011;18973;48.580;8.912;2023-01-31T05:48:07;18.90;;;12.00;;
32533;SDS011;18973;48.580;8.912;2023-01-31T05:50:33;23.05;;;13.27;;
32533;SDS011;18973;48.580;8.912;2023-01-31T05:52:59;28.10;;;13.55;;
32533;SDS011;18973;48.580;8.912;2023-01-31T05:55:27;18.13;;;11.57;;
32533;SDS011;18973;48.580;8.912;2023-01-31T05:57:53;21.13;;;11.90;;
32533;SDS011;18973;48.580;8.912;2023-01-31T06:00:19;18.15;;;10.38;;
32533;SDS011;18973;48.580;8.912;2023-01-31T06:02:46;18.30;;;10.02;;
32533;SDS011;18973;48.580;8.912;2023-01-31T06:05:12;17.73;;;10.00;;
32533;SDS011;18973;48.580;8.912;2023-01-31T06:07:38;22.45;;;10.63;;
32533;SDS011;18973;48.580;8.912;2023-01-31T06:10:05;24.45;;;11.35;;
32533;SDS011;18973;48.580;8.912;2023-01-31T06:12:32;21.08;;;10.18;;
32533;SDS011;18973;48.580;8.912;2023-01-31T06:14:59;21.65;;;11.32;;
32533;SDS011;18973;48.580;8.912;2023-01-31T06:17:24;21.40;;;12.05;;
32533;SDS011;18973;48.580;8.912;2023-01-31T06:19:50;19.98;;;11.20;;
32533;SDS011;18973;48.580;8.912;2023-01-31T06:22:16;22.42;;;11.50;;
32533;SDS011;18973;48.580;8.912;2023-01-31T06:24:43;18.88;;;11.48;;
32533;SDS011;18973;48.580;8.912;2023-01-31T06:27:08;21.13;;;10.85;;
32533;SDS011;18973;48.580;8.912;2023-01-31T06:29:34;19.13;;;10.60;;
32533;SDS011;18973;48.580;8.912;2023-01-31T06:32:00;16.10;;;10.15;;
32533;SDS011;18973;48.580;8.912;2023-01-31T06:34:25;17.25;;;10.68;;
32533;SDS011;18973;48.580;8.912;2023-01-31T06:36:51;23.08;;;11.80;;
32533;SDS011;18973;48.580;8.912;2023-01-31T06:39:17;13.63;;;9.75;;
32533;SDS011;18973;48.580;8.912;2023-01-31T06:41:45;21.27;;;11.43;;
32533;SDS011;18973;48.580;8.912;2023-01-31T06:44:11;24.50;;;11.63;;
32533;SDS011;18973;48.580;8.912;2023-01-31T06:46:36;26.08;;;11.95;;
32533;SDS011;18973;48.580;8.912;2023-01-31T06:49:02;20.10;;;11.32;;
32533;SDS011;18973;48.580;8.912;2023-01-31T06:51:28;18.30;;;11.45;;
32533;SDS011;18973;48.580;8.912;2023-01-31T06:53:54;24.70;;;11.35;;
32533;SDS011;18973;48.580;8.912;2023-01-31T06:56:20;20.35;;;10.32;;
32533;SDS011;18973;48.580;8.912;2023-01-31T06:58:47;25.17;;;12.20;;
32533;SDS011;18973;48.580;8.912;2023-01-31T07:01:13;22.48;;;12.65;;
32533;SDS011;18973;48.580;8.912;2023-01-31T07:03:39;23.63;;;12.45;;
32533;SDS011;18973;48.580;8.912;2023-01-31T07:06:06;24.60;;;13.38;;
32533;SDS011;18973;48.580;8.912;2023-01-31T07:08:32;24.15;;;11.25;;
32533;SDS011;18973;48.580;8.912;2023-01-31T07:10:58;18.92;;;11.45;;
32533;SDS011;18973;48.580;8.912;2023-01-31T07:13:27;21.85;;;12.00;;
32533;SDS011;18973;48.580;8.912;2023-01-31T07:15:54;24.40;;;11.93;;
32533;SDS011;18973;48.580;8.912;2023-01-31T07:18:20;19.88;;;11.70;;
32533;SDS011;18973;48.580;8.912;2023-01-31T07:20:46;23.35;;;12.05;;
32533;SDS011;18973;48.580;8.912;2023-01-31T07:23:11;28.25;;;17.88;;
32533;SDS011;18973;48.580;8.912;2023-01-31T07:25:37;32.13;;;14.80;;
32533;SDS011;18973;48.580;8.912;2023-01-31T07:28:03;32.17;;;16.05;;
32533;SDS011;18973;48.580;8.912;2023-01-31T07:30:32;39.22;;;19.08;;
32533;SDS011;18973;48.580;8.912;2023-01-31T07:32:58;32.17;;;15.15;;
32533;SDS011;18973;48.580;8.912;2023-01-31T07:35:25;25.50;;;15.35;;
32533;SDS011;18973;48.580;8.912;2023-01-31T07:37:52;28.08;;;14.50;;
32533;SDS011;18973;48.580;8.912;2023-01-31T07:40:18;27.33;;;13.52;;
32533;SDS011;18973;48.580;8.912;2023-01-31T07:42:43;29.13;;;12.30;;
32533;SDS011;18973;48.580;8.912;2023-01-31T07:45:10;28.33;;;12.75;;
32533;SDS011;18973;48.580;8.912;2023-01-31T07:47:37;21.63;;;11.10;;
32533;SDS011;18973;48.580;8.912;2023-01-31T07:50:03;20.90;;;10.80;;
32533;SDS011;18973;48.580;8.912;2023-01-31T07:52:30;21.17;;;11.32;;
32533;SDS011;18973;48.580;8.912;2023-01-31T07:54:56;18.75;;;11.05;;
32533;SDS011;18973;48.580;8.912;2023-01-31T07:57:22;18.02;;;9.38;;
32533;SDS011;18973;48.580;8.912;2023-01-31T07:59:47;16.60;;;8.65;;
32533;SDS011;18973;48.580;8.912;2023-01-31T08:02:14;16.35;;;8.60;;
32533;SDS011;18973;48.580;8.912;2023-01-31T08:05:00;16.63;;;8.75;;
32533;SDS011;18973;48.580;8.912;2023-01-31T08:07:27;18.73;;;8.85;;
32533;SDS011;18973;48.580;8.912;2023-01-31T08:09:53;15.05;;;8.27;;
32533;SDS011;18973;48.580;8.912;2023-01-31T08:12:22;23.23;;;11.90;;
32533;SDS011;18973;48.580;8.912;2023-01-31T08:14:48;27.75;;;13.10;;
32533;SDS011;18973;48.580;8.912;2023-01-31T08:17:14;29.08;;;14.88;;
32533;SDS011;18973;48.580;8.912;2023-01-31T08:19:42;18.02;;;10.63;;
32533;SDS011;18973;48.580;8.912;2023-01-31T08:22:08;18.25;;;8.57;;
32533;SDS011;18973;48.580;8.912;2023-01-31T08:27:09;12.98;;;7.20;;
32533;SDS011;18973;48.580;8.912;2023-01-31T08:29:35;17.48;;;6.32;;
32533;SDS011;18973;48.580;8.912;2023-01-31T08:32:01;14.80;;;6.30;;
32533;SDS011;18973;48.580;8.912;2023-01-31T08:34:27;12.90;;;6.15;;
32533;SDS011;18973;48.580;8.912;2023-01-31T08:36:53;13.45;;;5.40;;
32533;SDS011;18973;48.580;8.912;2023-01-31T08:39:19;16.60;;;5.82;;
32533;SDS011;18973;48.580;8.912;2023-01-31T08:41:45;12.15;;;5.38;;
32533;SDS011;18973;48.580;8.912;2023-01-31T08:44:15;13.48;;;5.50;;
32533;SDS011;18973;48.580;8.912;2023-01-31T08:46:40;11.23;;;5.63;;
32533;SDS011;18973;48.580;8.912;2023-01-31T08:49:06;12.93;;;4.82;;
32533;SDS011;18973;48.580;8.912;2023-01-31T08:51:33;18.67;;;5.40;;
32533;SDS011;18973;48.580;8.912;2023-01-31T08:54:01;11.30;;;5.03;;
32533;SDS011;18973;48.580;8.912;2023-01-31T08:56:27;12.35;;;5.32;;
32533;SDS011;18973;48.580;8.912;2023-01-31T08:58:53;10.63;;;4.40;;
32533;SDS011;18973;48.580;8.912;2023-01-31T09:01:20;19.20;;;5.65;;
32533;SDS011;18973;48.580;8.912;2023-01-31T09:03:46;19.70;;;5.22;;
32533;SDS011;18973;48.580;8.912;2023-01-31T09:06:15;16.92;;;5.63;;
32533;SDS011;18973;48.580;8.912;2023-01-31T09:08:43;12.15;;;4.70;;
32533;SDS011;18973;48.580;8.912;2023-01-31T09:11:09;9.85;;;4.63;;
32533;SDS011;18973;48.580;8.912;2023-01-31T09:13:35;12.00;;;4.45;;
32533;SDS011;18973;48.580;8.912;2023-01-31T09:16:05;14.98;;;5.20;;
32533;SDS011;18973;48.580;8.912;2023-01-31T09:18:35;10.68;;;5.07;;
32533;SDS011;18973;48.580;8.912;2023-01-31T09:21:06;7.63;;;5.07;;
32533;SDS011;18973;48.580;8.912;2023-01-31T09:23:36;7.80;;;4.32;;
32533;SDS011;18973;48.580;8.912;2023-01-31T09:26:03;15.35;;;5.28;;
32533;SDS011;18973;48.580;8.912;2023-01-31T09:28:29;13.75;;;5.32;;
32533;SDS011;18973;48.580;8.912;2023-01-31T09:31:00;10.52;;;4.72;;
32533;SDS011;18973;48.580;8.912;2023-01-31T09:35:57;11.95;;;5.63;;
32533;SDS011;18973;48.580;8.912;2023-01-31T09:38:30;9.75;;;4.55;;
32533;SDS011;18973;48.580;8.912;2023-01-31T09:41:40;15.27;;;5.15;;
32533;SDS011;18973;48.580;8.912;2023-01-31T09:44:11;12.10;;;4.90;;
32533;SDS011;18973;48.580;8.912;2023-01-31T09:52:24;11.27;;;5.03;;
32533;SDS011;18973;48.580;8.912;2023-01-31T09:54:52;11.90;;;4.50;;
32533;SDS011;18973;48.580;8.912;2023-01-31T09:57:37;9.60;;;4.00;;
32533;SDS011;18973;48.580;8.912;2023-01-31T10:05:56;11.13;;;4.47;;
32533;SDS011;18973;48.580;8.912;2023-01-31T10:08:47;14.07;;;4.40;;
32533;SDS011;18973;48.580;8.912;2023-01-31T10:17:36;8.98;;;4.50;;
32533;SDS011;18973;48.580;8.912;2023-01-31T10:23:30;11.70;;;4.60;;
32533;SDS011;18973;48.580;8.912;2023-01-31T10:26:08;7.57;;;5.00;;
32533;SDS011;18973;48.580;8.912;2023-01-31T10:28:48;10.43;;;4.20;;
32533;SDS011;18973;48.580;8.912;2023-01-31T10:31:59;13.30;;;4.35;;
32533;SDS011;18973;48.580;8.912;2023-01-31T10:34:31;9.15;;;4.40;;
32533;SDS011;18973;48.580;8.912;2023-01-31T10:37:06;11.07;;;4.55;;
32533;SDS011;18973;48.580;8.912;2023-01-31T10:40:04;10.07;;;3.80;;
32533;SDS011;18973;48.580;8.912;2023-01-31T10:42:38;9.65;;;4.30;;
32533;SDS011;18973;48.580;8.912;2023-01-31T11:03:26;8.55;;;3.47;;
32533;SDS011;18973;48.580;8.912;2023-01-31T11:05:56;12.43;;;3.85;;
32533;SDS011;18973;48.580;8.912;2023-01-31T11:08:30;8.13;;;4.22;;
32533;SDS011;18973;48.580;8.912;2023-01-31T11:11:04;10.73;;;3.78;;
32533;SDS011;18973;48.580;8.912;2023-01-31T11:13:35;8.77;;;3.88;;
32533;SDS011;18973;48.580;8.912;2023-01-31T11:16:02;11.63;;;3.60;;
32533;SDS011;18973;48.580;8.912;2023-01-31T11:18:32;9.52;;;3.78;;
32533;SDS011;18973;48.580;8.912;2023-01-31T11:21:00;7.43;;;3.80;;
32533;SDS011;18973;48.580;8.912;2023-01-31T11:23:28;13.25;;;5.47;;
32533;SDS011;18973;48.580;8.912;2023-01-31T11:25:56;13.35;;;5.68;;
32533;SDS011;18973;48.580;8.912;2023-01-31T11:28:26;18.23;;;7.18;;
32533;SDS011;18973;48.580;8.912;2023-01-31T11:31:02;12.00;;;4.38;;
32533;SDS011;18973;48.580;8.912;2023-01-31T11:33:36;11.85;;;3.88;;
32533;SDS011;18973;48.580;8.912;2023-01-31T11:36:15;9.38;;;3.20;;
32533;SDS011;18973;48.580;8.912;2023-01-31T11:38:49;5.78;;;3.40;;
32533;SDS011;18973;48.580;8.912;2023-01-31T11:41:25;16.05;;;3.97;;
32533;SDS011;18973;48.580;8.912;2023-01-31T11:49:22;5.60;;;3.35;;
32533;SDS011;18973;48.580;8.912;2023-01-31T11:51:58;9.13;;;4.05;;
32533;SDS011;18973;48.580;8.912;2023-01-31T11:54:45;8.20;;;3.83;;
32533;SDS011;18973;48.580;8.912;2023-01-31T11:57:23;8.40;;;3.42;;
32533;SDS011;18973;48.580;8.912;2023-01-31T11:59:53;9.43;;;3.50;;
32533;SDS011;18973;48.580;8.912;2023-01-31T12:04:56;8.93;;;5.00;;
32533;SDS011;18973;48.580;8.912;2023-01-31T12:07:23;9.48;;;3.78;;
32533;SDS011;18973;48.580;8.912;2023-01-31T12:09:56;9.85;;;4.15;;
32533;SDS011;18973;48.580;8.912;2023-01-31T12:12:34;10.23;;;4.18;;
32533;SDS011;18973;48.580;8.912;2023-01-31T12:15:01;12.18;;;4.13;;
32533;SDS011;18973;48.580;8.912;2023-01-31T12:17:45;9.23;;;3.40;;
32533;SDS011;18973;48.580;8.912;2023-01-31T12:20:19;10.20;;;3.50;;
32533;SDS011;18973;48.580;8.912;2023-01-31T12:31:09;9.48;;;3.90;;
32533;SDS011;18973;48.580;8.912;2023-01-31T12:57:18;14.80;;;4.75;;
32533;SDS011;18973;48.580;8.912;2023-01-31T13:08:22;11.52;;;4.57;;
32533;SDS011;18973;48.580;8.912;2023-01-31T13:13:38;12.57;;;5.05;;
32533;SDS011;18973;48.580;8.912;2023-01-31T13:16:15;7.50;;;4.53;;
32533;SDS011;18973;48.580;8.912;2023-01-31T13:18:48;10.23;;;5.50;;
32533;SDS011;18973;48.580;8.912;2023-01-31T13:21:17;11.02;;;4.90;;
32533;SDS011;18973;48.580;8.912;2023-01-31T13:23:54;8.85;;;4.65;;
32533;SDS011;18973;48.580;8.912;2023-01-31T13:26:27;12.07;;;4.93;;
32533;SDS011;18973;48.580;8.912;2023-01-31T13:28:57;17.88;;;4.85;;
32533;SDS011;18973;48.580;8.912;2023-01-31T13:31:50;7.72;;;5.07;;
32533;SDS011;18973;48.580;8.912;2023-01-31T13:36:59;11.18;;;5.03;;
32533;SDS011;18973;48.580;8.912;2023-01-31T13:39:29;13.88;;;5.03;;
32533;SDS011;18973;48.580;8.912;2023-01-31T13:41:56;10.25;;;4.85;;
32533;SDS011;18973;48.580;8.912;2023-01-31T13:44:25;12.18;;;5.43;;
32533;SDS011;18973;48.580;8.912;2023-01-31T13:49:43;28.20;;;12.20;;
32533;SDS011;18973;48.580;8.912;2023-01-31T14:00:46;8.43;;;5.43;;
32533;SDS011;18973;48.580;8.912;2023-01-31T14:03:18;8.95;;;5.07;;
32533;SDS011;18973;48.580;8.912;2023-01-31T14:06:00;9.15;;;5.53;;
32533;SDS011;18973;48.580;8.912;2023-01-31T14:10:52;15.13;;;5.47;;
32533;SDS011;18973;48.580;8.912;2023-01-31T14:13:23;10.02;;;5.88;;
32533;SDS011;18973;48.580;8.912;2023-01-31T14:15:55;12.93;;;5.43;;
32533;SDS011;18973;48.580;8.912;2023-01-31T14:23:55;9.60;;;5.50;;
32533;SDS011;18973;48.580;8.912;2023-01-31T14:29:17;11.32;;;5.00;;
32533;SDS011;18973;48.580;8.912;2023-01-31T14:31:45;8.85;;;4.70;;
32533;SDS011;18973;48.580;8.912;2023-01-31T14:50:41;7.50;;;5.55;;
32533;SDS011;18973;48.580;8.912;2023-01-31T14:56:04;7.13;;;5.40;;
32533;SDS011;18973;48.580;8.912;2023-01-31T14:58:51;17.58;;;7.97;;
32533;SDS011;18973;48.580;8.912;2023-01-31T15:01:19;7.70;;;4.97;;
32533;SDS011;18973;48.580;8.912;2023-01-31T15:03:48;17.48;;;7.03;;
32533;SDS011;18973;48.580;8.912;2023-01-31T15:06:26;20.13;;;9.88;;
32533;SDS011;18973;48.580;8.912;2023-01-31T15:11:49;23.38;;;10.45;;
32533;SDS011;18973;48.580;8.912;2023-01-31T15:14:37;14.63;;;8.18;;
32533;SDS011;18973;48.580;8.912;2023-01-31T15:17:15;10.80;;;6.53;;
32533;SDS011;18973;48.580;8.912;2023-01-31T15:20:12;9.63;;;5.82;;
32533;SDS011;18973;48.580;8.912;2023-01-31T15:22:39;9.98;;;5.57;;
32533;SDS011;18973;48.580;8.912;2023-01-31T15:27:53;9.52;;;5.53;;
32533;SDS011;18973;48.580;8.912;2023-01-31T15:30:21;7.22;;;6.05;;
32533;SDS011;18973;48.580;8.912;2023-01-31T15:38:21;8.05;;;5.50;;
32533;SDS011;18973;48.580;8.912;2023-01-31T15:43:36;9.95;;;5.68;;
32533;SDS011;18973;48.580;8.912;2023-01-31T15:48:55;7.55;;;5.22;;
32533;SDS011;18973;48.580;8.912;2023-01-31T15:51:21;11.68;;;5.85;;
32533;SDS011;18973;48.580;8.912;2023-01-31T15:53:47;10.70;;;5.50;;
32533;SDS011;18973;48.580;8.912;2023-01-31T15:56:24;10.75;;;5.32;;
32533;SDS011;18973;48.580;8.912;2023-01-31T15:58:54;13.38;;;5.22;;
32533;SDS011;18973;48.580;8.912;2023-01-31T16:01:21;10.40;;;5.63;;
32533;SDS011;18973;48.580;8.912;2023-01-31T16:03:56;11.07;;;5.80;;
32533;SDS011;18973;48.580;8.912;2023-01-31T16:06:24;8.20;;;4.75;;
32533;SDS011;18973;48.580;8.912;2023-01-31T16:08:52;9.75;;;5.00;;
32533;SDS011;18973;48.580;8.912;2023-01-31T16:11:19;8.55;;;5.82;;
32533;SDS011;18973;48.580;8.912;2023-01-31T16:13:45;9.35;;;5.55;;
32533;SDS011;18973;48.580;8.912;2023-01-31T16:16:12;8.93;;;6.00;;
32533;SDS011;18973;48.580;8.912;2023-01-31T16:18:38;9.88;;;4.93;;
32533;SDS011;18973;48.580;8.912;2023-01-31T16:26:39;7.90;;;5.30;;
32533;SDS011;18973;48.580;8.912;2023-01-31T16:29:37;7.85;;;4.82;;
32533;SDS011;18973;48.580;8.912;2023-01-31T16:32:14;8.02;;;4.80;;
32533;SDS011;18973;48.580;8.912;2023-01-31T16:34:58;5.63;;;4.57;;
32533;SDS011;18973;48.580;8.912;2023-01-31T16:37:48;11.15;;;6.40;;
32533;SDS011;18973;48.580;8.912;2023-01-31T16:40:27;10.52;;;6.20;;
32533;SDS011;18973;48.580;8.912;2023-01-31T16:43:09;9.75;;;5.85;;
32533;SDS011;18973;48.580;8.912;2023-01-31T16:46:04;9.88;;;5.53;;
32533;SDS011;18973;48.580;8.912;2023-01-31T16:48:33;8.43;;;5.72;;
32533;SDS011;18973;48.580;8.912;2023-01-31T16:56:45;11.88;;;6.18;;
32533;SDS011;18973;48.580;8.912;2023-01-31T17:02:08;11.93;;;6.18;;
32533;SDS011;18973;48.580;8.912;2023-01-31T17:04:41;10.18;;;6.20;;
32533;SDS011;18973;48.580;8.912;2023-01-31T17:07:13;12.57;;;6.28;;
32533;SDS011;18973;48.580;8.912;2023-01-31T17:09:41;14.07;;;6.90;;
32533;SDS011;18973;48.580;8.912;2023-01-31T17:12:26;23.17;;;10.32;;
32533;SDS011;18973;48.580;8.912;2023-01-31T17:14:54;17.02;;;8.60;;
32533;SDS011;18973;48.580;8.912;2023-01-31T17:17:27;11.57;;;7.63;;
32533;SDS011;18973;48.580;8.912;2023-01-31T17:19:54;13.73;;;8.02;;
32533;SDS011;18973;48.580;8.912;2023-01-31T17:22:20;15.82;;;8.90;;
32533;SDS011;18973;48.580;8.912;2023-01-31T17:24:49;13.85;;;5.78;;
32533;SDS011;18973;48.580;8.912;2023-01-31T17:27:16;9.82;;;6.20;;
32533;SDS011;18973;48.580;8.912;2023-01-31T17:29:43;10.02;;;6.63;;
32533;SDS011;18973;48.580;8.912;2023-01-31T17:32:14;12.60;;;8.10;;
32533;SDS011;18973;48.580;8.912;2023-01-31T17:34:41;14.73;;;7.22;;
32533;SDS011;18973;48.580;8.912;2023-01-31T17:37:10;19.52;;;10.65;;
32533;SDS011;18973;48.580;8.912;2023-01-31T17:39:37;28.23;;;15.23;;
32533;SDS011;18973;48.580;8.912;2023-01-31T17:42:03;23.02;;;11.77;;
32533;SDS011;18973;48.580;8.912;2023-01-31T17:44:29;14.85;;;8.40;;
32533;SDS011;18973;48.580;8.912;2023-01-31T17:46:55;16.55;;;8.15;;
32533;SDS011;18973;48.580;8.912;2023-01-31T17:49:21;11.63;;;7.78;;
32533;SDS011;18973;48.580;8.912;2023-01-31T17:51:47;12.63;;;6.78;;
32533;SDS011;18973;48.580;8.912;2023-01-31T17:54:12;10.68;;;7.15;;
32533;SDS011;18973;48.580;8.912;2023-01-31T17:56:38;14.07;;;8.98;;
32533;SDS011;18973;48.580;8.912;2023-01-31T17:59:04;12.75;;;7.68;;
32533;SDS011;18973;48.580;8.912;2023-01-31T18:01:30;9.80;;;6.85;;
32533;SDS011;18973;48.580;8.912;2023-01-31T18:03:59;14.20;;;6.45;;
32533;SDS011;18973;48.580;8.912;2023-01-31T18:06:26;15.70;;;9.50;;
32533;SDS011;18973;48.580;8.912;2023-01-31T18:08:51;12.93;;;7.13;;
32533;SDS011;18973;48.580;8.912;2023-01-31T18:11:17;12.43;;;7.10;;
32533;SDS011;18973;48.580;8.912;2023-01-31T18:13:43;11.45;;;7.07;;
32533;SDS011;18973;48.580;8.912;2023-01-31T18:16:10;13.00;;;8.73;;
32533;SDS011;18973;48.580;8.912;2023-01-31T18:18:39;16.80;;;9.07;;
32533;SDS011;18973;48.580;8.912;2023-01-31T18:21:09;15.10;;;7.78;;
32533;SDS011;18973;48.580;8.912;2023-01-31T18:23:35;12.90;;;8.07;;
32533;SDS011;18973;48.580;8.912;2023-01-31T18:26:05;12.63;;;7.28;;
32533;SDS011;18973;48.580;8.912;2023-01-31T18:28:31;10.60;;;7.55;;
32533;SDS011;18973;48.580;8.912;2023-01-31T18:31:04;13.10;;;6.65;;
32533;SDS011;18973;48.580;8.912;2023-01-31T18:33:37;10.75;;;6.50;;